Terminal Aerodrome Forecast
Issued by NWS Los Angeles, CA

Home | Current Version | Previous Version | Text Only | Print | Product List | Glossary On
Versions: 1 2 3 4 5 6 7 8 9 10 11 12 13 14 15 16 17 18 19 20 21 22 23 24
000
FTUS46 KLOX 040718 AAA
TAFSMX
TAF AMD
KSMX 040718Z 0407/0506 VRB03KT P6SM BKN015
     FM041000 VRB03KT 6SM BR OVC008
     FM041200 VRB03KT 2SM BR OVC004
     FM041600 VRB03KT P6SM SCT150
     FM041900 30015G22KT P6SM SCT150
     FM050300 31012KT P6SM SCT150 OVC250=

USA.gov is the U.S. government's official web portal to all federal, state and local government web resources and services.